Pickens, Oklahoma
Current Conditions -  °F | °C
As of 8:15 AM on Monday 20 Oct 2014 (Local Time) from K4O4 Reporting Station
Clear Clear  
Wind Chill: 50°   Ceiling: Unl
Heat Index: 50°   Visibility: 10mi
Dew Point: 48°   Wind: 3mph
Humidity: 94%   Direction: 70°ENE
Pressure: 30.11"   Gusts: NA
Location:  34.4°N, 95.01°W
Report Text: K4O4 201315Z AUTO 07003KT 10SM CLR 10/09 A3011 RMK AO2
Loading
Personal Weather Stations






























Interactive Weather Map
Tropical Storm Tracking
New forecast layout! Learn more

10-Day Weather Forecast

Advertisements
Track Severe Weather on mobile